Time;durP1;ratioP1;P1;durP2;ratioP2;P2;SDS_P1;SDS_P2;PMS_P1;PMS_P2;Temp;Humidity;BMP_temperature;BMP_pressure;BME280_temperature;BME280_humidity;BME280_pressure;Samples;Min_cycle;Max_cycle;Signal;HPM_P1;HPM_P2
2023/08/31 00:00:44;;;;;;;5.35;1.20;;;;;;;22.13;39.38;93366.81;5010529;28;20029;-77
2023/08/31 00:03:10;;;;;;;3.25;1.50;;;;;;;22.15;39.10;93373.38;5007323;28;20037;-75
2023/08/31 00:05:43;;;;;;;3.28;1.30;;;;;;;22.11;39.79;93378.06;5016552;28;20088;-77
2023/08/31 00:08:09;;;;;;;3.75;1.33;;;;;;;22.08;39.95;93381.56;5014672;28;20033;-77
2023/08/31 00:10:36;;;;;;;3.40;1.30;;;;;;;22.02;39.40;93377.72;5008908;28;20045;-76
2023/08/31 00:13:06;;;;;;;3.13;1.42;;;;;;;21.96;39.82;93373.88;5009174;28;20033;-76
2023/08/31 00:15:35;;;;;;;4.80;1.40;;;;;;;21.94;39.73;93378.94;5014812;28;20178;-76
2023/08/31 00:18:03;;;;;;;3.28;1.50;;;;;;;21.81;39.79;93372.41;5008525;28;20564;-77
2023/08/31 00:20:30;;;;;;;2.20;1.00;;;;;;;21.75;40.91;93376.72;5008892;28;20543;-77
2023/08/31 00:22:55;;;;;;;2.63;1.30;;;;;;;21.72;41.03;93372.84;5008187;28;20399;-76
2023/08/31 00:25:21;;;;;;;4.25;1.77;;;;;;;21.75;41.17;93377.47;5008096;28;20076;-77
2023/08/31 00:27:48;;;;;;;3.33;1.50;;;;;;;21.65;41.36;93369.41;5008739;28;20409;-77
2023/08/31 00:30:14;;;;;;;4.20;1.77;;;;;;;21.66;41.36;93379.03;5008631;28;20518;-76
2023/08/31 00:32:40;;;;;;;3.70;1.70;;;;;;;21.54;41.73;93380.25;5008374;28;20037;-77
2023/08/31 00:35:08;;;;;;;6.38;1.73;;;;;;;21.46;41.81;93379.47;5008413;28;20033;-77
2023/08/31 00:37:34;;;;;;;3.83;1.35;;;;;;;21.57;41.58;93389.53;5009177;28;20395;-76
2023/08/31 00:39:59;;;;;;;2.97;1.55;;;;;;;21.48;41.85;93383.72;5012051;28;20135;-77
2023/08/31 00:42:25;;;;;;;5.15;1.73;;;;;;;21.52;41.52;93392.59;5006539;28;20562;-76
2023/08/31 00:44:51;;;;;;;4.43;1.63;;;;;;;21.42;42.58;93383.38;5008325;28;20037;-76
2023/08/31 00:47:17;;;;;;;6.15;1.83;;;;;;;21.45;42.16;93394.19;5008309;28;20132;-76
2023/08/31 00:49:43;;;;;;;4.00;1.05;;;;;;;21.39;42.37;93392.28;5007427;28;20038;-76
2023/08/31 00:52:09;;;;;;;7.25;2.00;;;;;;;21.42;41.61;93400.38;5008725;28;20084;-76
2023/08/31 00:54:35;;;;;;;2.80;1.17;;;;;;;21.27;41.89;93388.03;5006129;28;20032;-77
2023/08/31 00:57:00;;;;;;;4.38;1.20;;;;;;;21.36;42.06;93396.50;5008530;28;20037;-75
2023/08/31 00:59:26;;;;;;;3.88;1.33;;;;;;;21.43;41.37;93409.25;5007010;28;20286;-76
2023/08/31 01:02:13;;;;;;;8.38;1.77;;;;;;;21.43;41.10;93410.03;5008592;28;20042;-77
2023/08/31 01:05:18;;;;;;;4.85;1.27;;;;;;;21.48;41.02;93408.84;5008066;28;20544;-77
2023/08/31 01:08:03;;;;;;;3.28;1.40;;;;;;;21.43;41.34;93407.31;5000219;28;20041;-77
2023/08/31 01:10:44;;;;;;;4.38;1.15;;;;;;;21.35;42.91;93411.22;4999007;28;20096;-76
2023/08/31 01:13:15;;;;;;;3.90;1.65;;;;;;;21.32;42.50;93406.56;5015857;28;20102;-76
2023/08/31 01:15:53;;;;;;;3.63;1.80;;;;;;;21.31;42.68;93410.47;5007768;28;20029;-77
2023/08/31 01:18:23;;;;;;;5.13;1.20;;;;;;;21.27;42.79;93409.69;5006005;28;20033;-77
2023/08/31 01:21:11;;;;;;;6.75;1.63;;;;;;;21.25;43.16;93416.66;5007134;28;20042;-76
2023/08/31 01:23:49;;;;;;;3.85;1.27;;;;;;;21.14;43.14;93399.66;5007372;28;20553;-77
2023/08/31 01:26:15;;;;;;;4.50;1.75;;;;;;;21.10;42.57;93396.97;5008057;28;20034;-76
2023/08/31 01:28:40;;;;;;;3.22;1.40;;;;;;;21.18;43.28;93420.13;5007132;28;20099;-76
2023/08/31 01:31:05;;;;;;;4.38;1.42;;;;;;;21.11;43.49;93412.06;5008049;28;20030;-74
2023/08/31 01:33:31;;;;;;;2.47;1.50;;;;;;;21.02;43.77;93403.56;5014388;28;20599;-77
2023/08/31 01:35:59;;;;;;;3.13;1.75;;;;;;;21.03;43.91;93405.09;5007542;28;20500;-77
2023/08/31 01:38:28;;;;;;;3.13;1.23;;;;;;;20.95;43.52;93390.03;5008255;28;20092;-76
2023/08/31 01:41:01;;;;;;;4.57;1.50;;;;;;;21.00;43.64;93400.47;5006967;28;20045;-76
2023/08/31 01:43:27;;;;;;;4.20;1.40;;;;;;;20.91;43.51;93392.75;5005857;28;20185;-76
2023/08/31 01:45:53;;;;;;;3.33;1.20;;;;;;;20.87;43.72;93388.53;5009443;28;20105;-76
2023/08/31 01:48:19;;;;;;;4.38;1.20;;;;;;;20.83;44.08;93393.09;5007327;28;20524;-76
2023/08/31 01:50:44;;;;;;;7.13;1.52;;;;;;;20.78;43.70;93393.50;5006866;28;20440;-76
2023/08/31 01:53:09;;;;;;;3.08;1.55;;;;;;;20.77;43.63;93400.84;5007517;28;20140;-76
2023/08/31 01:55:35;;;;;;;6.97;1.48;;;;;;;20.67;43.68;93390.03;5009202;28;20042;-76
2023/08/31 01:58:00;;;;;;;7.95;1.90;;;;;;;20.41;44.42;93370.38;5007147;28;20025;-76
2023/08/31 02:00:26;;;;;;;2.80;1.15;;;;;;;20.58;44.41;93412.06;5004549;28;20168;-76
2023/08/31 02:02:52;;;;;;;2.00;1.30;;;;;;;20.46;44.40;93407.03;5008134;28;20049;-75
2023/08/31 02:05:17;;;;;;;4.95;2.03;;;;;;;20.45;44.28;93405.47;5007403;28;20421;-77
2023/08/31 02:07:42;;;;;;;5.28;1.70;;;;;;;20.45;44.09;93417.03;5008954;28;20046;-76
2023/08/31 02:10:08;;;;;;;2.83;1.35;;;;;;;20.34;44.73;93424.34;5006437;28;20120;-76
2023/08/31 02:12:35;;;;;;;3.50;1.38;;;;;;;20.25;44.84;93434.75;5008953;28;20059;-78
2023/08/31 02:15:01;;;;;;;3.38;1.80;;;;;;;20.15;45.02;93436.25;5008472;28;20042;-76
2023/08/31 02:17:26;;;;;;;3.10;1.20;;;;;;;20.02;45.15;93420.78;5022704;28;20041;-78
2023/08/31 02:19:52;;;;;;;5.00;1.40;;;;;;;20.07;45.08;93415.03;5009306;28;20056;-75
2023/08/31 02:22:17;;;;;;;3.85;1.33;;;;;;;20.17;45.02;93438.59;5008804;28;20506;-76
2023/08/31 02:24:43;;;;;;;3.03;1.33;;;;;;;20.12;45.00;93428.16;5006178;28;20029;-76
2023/08/31 02:27:08;;;;;;;4.40;1.30;;;;;;;20.09;44.77;93428.94;5008236;28;20064;-77
2023/08/31 02:29:33;;;;;;;2.13;1.20;;;;;;;20.07;44.79;93420.41;5007035;28;20089;-76
2023/08/31 02:31:59;;;;;;;3.58;1.58;;;;;;;20.07;44.87;93420.41;5015347;28;20041;-78
2023/08/31 02:34:25;;;;;;;3.25;2.20;;;;;;;20.05;44.81;93418.09;5005311;28;20025;-76
2023/08/31 02:36:50;;;;;;;5.10;1.42;;;;;;;20.03;44.60;93414.25;5007883;28;20065;-76
2023/08/31 02:39:16;;;;;;;4.18;1.30;;;;;;;19.96;44.78;93411.50;5008609;28;20029;-76
2023/08/31 02:41:41;;;;;;;3.00;1.50;;;;;;;19.98;44.70;93420.03;5006705;28;20394;-78
2023/08/31 02:44:07;;;;;;;2.75;1.60;;;;;;;19.92;44.55;93406.13;5007153;28;20052;-77
2023/08/31 02:46:32;;;;;;;3.63;1.73;;;;;;;19.89;44.67;93414.22;5010877;28;20069;-77
2023/08/31 02:48:57;;;;;;;3.25;1.30;;;;;;;19.93;44.44;93426.56;5009475;28;20091;-78
2023/08/31 02:51:23;;;;;;;4.20;1.20;;;;;;;19.86;44.68;93425.75;5008286;28;20397;-78
2023/08/31 02:53:49;;;;;;;5.30;1.30;;;;;;;19.66;45.09;93399.09;5011379;28;20037;-78
2023/08/31 02:56:14;;;;;;;3.83;1.30;;;;;;;19.75;44.90;93426.47;5010604;28;20078;-77
2023/08/31 02:58:40;;;;;;;4.78;1.52;;;;;;;19.68;45.27;93428.41;5005970;28;20046;-77
2023/08/31 03:01:13;;;;;;;4.57;1.10;;;;;;;19.79;45.22;93447.31;5011410;28;20026;-77
2023/08/31 03:03:39;;;;;;;2.38;1.02;;;;;;;19.68;45.67;93439.97;5009434;28;20033;-77
2023/08/31 03:06:09;;;;;;;6.53;1.95;;;;;;;19.60;45.13;93430.28;5009610;28;20383;-78
2023/08/31 03:08:37;;;;;;;2.75;1.20;;;;;;;19.69;45.10;93455.00;5008427;28;20084;-77
2023/08/31 03:11:04;;;;;;;4.00;1.65;;;;;;;19.67;45.27;93456.50;5009305;28;20040;-79
2023/08/31 03:13:31;;;;;;;2.88;1.20;;;;;;;19.58;45.12;93437.97;5011115;28;20033;-78
2023/08/31 03:15:56;;;;;;;4.70;1.63;;;;;;;19.64;45.05;93447.28;5011229;28;20060;-78
2023/08/31 03:18:22;;;;;;;4.10;1.33;;;;;;;19.55;45.25;93432.59;5008548;28;20565;-77
2023/08/31 03:20:48;;;;;;;2.45;1.67;;;;;;;19.35;45.28;93417.81;5010027;28;20049;-77
2023/08/31 03:23:14;;;;;;;6.28;1.48;;;;;;;19.38;45.73;93444.78;5009512;28;20037;-77
2023/08/31 03:25:39;;;;;;;1.95;1.20;;;;;;;19.42;46.16;93456.34;5018068;28;20095;-78
2023/08/31 03:28:05;;;;;;;3.55;1.25;;;;;;;19.41;45.86;93449.41;5010658;28;20091;-78
2023/08/31 03:30:30;;;;;;;5.18;1.63;;;;;;;19.43;45.84;93449.03;5008774;28;20050;-77
2023/08/31 03:32:56;;;;;;;5.18;1.55;;;;;;;19.45;45.71;93455.66;5010824;28;20069;-78
2023/08/31 03:35:26;;;;;;;6.50;1.70;;;;;;;19.41;45.81;93454.81;5008107;28;20449;-78
2023/08/31 03:37:52;;;;;;;4.63;1.60;;;;;;;19.42;45.41;93456.34;5010069;28;20467;-78
2023/08/31 03:40:17;;;;;;;4.15;1.40;;;;;;;19.40;45.26;93453.28;5009005;28;20522;-78
2023/08/31 03:42:43;;;;;;;2.40;1.30;;;;;;;19.33;45.45;93453.22;5012457;28;20057;-78
2023/08/31 03:45:08;;;;;;;3.75;1.70;;;;;;;19.36;45.58;93457.13;5007928;28;20538;-78
2023/08/31 03:47:34;;;;;;;2.35;1.50;;;;;;;19.38;45.41;93455.56;5008357;28;20045;-77
2023/08/31 03:49:59;;;;;;;2.85;2.00;;;;;;;19.19;45.57;93447.75;5010511;28;20030;-77
2023/08/31 03:52:25;;;;;;;3.97;1.65;;;;;;;19.27;45.69;93460.13;5008766;28;20732;-76
2023/08/31 03:54:52;;;;;;;3.15;1.52;;;;;;;19.34;46.06;93470.97;5009831;28;20026;-78
2023/08/31 03:57:18;;;;;;;4.22;1.77;;;;;;;19.25;45.99;93463.22;5008335;28;20490;-78
2023/08/31 03:59:43;;;;;;;2.60;1.38;;;;;;;19.20;46.22;93471.66;5015826;28;20044;-78
2023/08/31 04:02:08;;;;;;;2.95;2.05;;;;;;;18.97;46.22;93440.69;5008157;28;20379;-78
2023/08/31 04:04:34;;;;;;;2.90;1.23;;;;;;;19.17;46.57;93490.47;5009819;28;20041;-77
2023/08/31 04:07:00;;;;;;;5.05;1.90;;;;;;;19.04;46.65;93483.84;5010508;28;20061;-78
2023/08/31 04:09:25;;;;;;;6.25;2.05;;;;;;;19.04;46.74;93497.31;5008711;28;20037;-77
2023/08/31 04:11:51;;;;;;;4.10;1.33;;;;;;;19.01;46.98;93500.75;5010843;28;20037;-78
2023/08/31 04:14:18;;;;;;;3.72;1.70;;;;;;;19.00;47.41;93505.38;5010438;28;20122;-78
2023/08/31 04:16:43;;;;;;;5.68;1.50;;;;;;;19.02;47.43;93513.84;5009542;28;20037;-77
2023/08/31 04:19:09;;;;;;;2.92;1.40;;;;;;;19.05;47.50;93507.72;5006939;28;20029;-78
2023/08/31 04:21:34;;;;;;;3.83;1.80;;;;;;;19.15;47.21;93522.44;5010171;28;20024;-78
2023/08/31 04:24:00;;;;;;;3.58;1.85;;;;;;;19.12;47.69;93523.94;5016290;28;20496;-78
2023/08/31 04:26:25;;;;;;;4.80;2.20;;;;;;;19.09;48.03;93529.31;5007647;28;20034;-78
2023/08/31 04:28:51;;;;;;;4.90;1.83;;;;;;;19.04;48.29;93526.97;5009079;28;20095;-78
2023/08/31 04:31:17;;;;;;;5.82;1.85;;;;;;;19.11;48.32;93535.13;5009091;28;20099;-79
2023/08/31 04:33:42;;;;;;;10.48;2.15;;;;;;;19.15;48.33;93538.59;5010332;28;20060;-78
2023/08/31 04:36:07;;;;;;;4.63;2.58;;;;;;;19.16;48.14;93529.38;5006940;28;20380;-78
2023/08/31 04:38:37;;;;;;;7.57;2.17;;;;;;;19.25;48.00;93541.38;5011518;28;20390;-77
2023/08/31 04:41:03;;;;;;;6.95;2.50;;;;;;;19.21;48.45;93545.22;5008325;28;20052;-78
2023/08/31 04:43:29;;;;;;;6.43;2.47;;;;;;;19.16;48.34;93535.53;5009643;28;20029;-79
2023/08/31 04:45:55;;;;;;;6.35;1.77;;;;;;;19.20;48.32;93525.56;5009132;28;20635;-78
2023/08/31 04:48:20;;;;;;;6.00;1.83;;;;;;;19.25;47.75;93532.53;5008682;28;20034;-78
2023/08/31 04:50:46;;;;;;;7.40;1.85;;;;;;;19.39;47.95;93538.00;5007242;28;20530;-78
2023/08/31 04:53:12;;;;;;;4.63;1.98;;;;;;;19.35;47.58;93526.44;5007485;28;20045;-78
2023/08/31 04:55:40;;;;;;;4.68;1.65;;;;;;;19.38;48.00;93536.47;5009236;28;20037;-77
2023/08/31 04:58:05;;;;;;;3.58;1.75;;;;;;;19.51;47.99;93545.03;5008130;28;20037;-77
2023/08/31 05:00:31;;;;;;;4.32;1.77;;;;;;;19.53;48.01;93548.94;5009160;28;20045;-78
2023/08/31 05:02:57;;;;;;;4.57;1.88;;;;;;;19.61;47.76;93550.50;5007999;28;20119;-78
2023/08/31 05:05:22;;;;;;;7.20;1.80;;;;;;;19.53;47.36;93518.47;5007753;28;20117;-78
2023/08/31 05:07:48;;;;;;;4.28;2.25;;;;;;;19.72;46.77;93535.16;5008605;28;20165;-78
2023/08/31 05:10:13;;;;;;;3.20;1.50;;;;;;;19.95;46.85;93548.38;5008104;28;20029;-79
2023/08/31 05:12:39;;;;;;;3.38;1.42;;;;;;;20.01;46.06;93546.09;5007246;28;20026;-78
2023/08/31 05:15:05;;;;;;;4.65;1.92;;;;;;;20.10;45.73;93550.00;5010597;28;20486;-77
2023/08/31 05:17:31;;;;;;;3.55;1.58;;;;;;;20.15;45.54;93538.06;5008507;28;20029;-78
2023/08/31 05:19:56;;;;;;;4.85;1.70;;;;;;;20.34;44.80;93542.41;5006486;28;20251;-78
2023/08/31 05:22:22;;;;;;;2.80;1.50;;;;;;;20.52;44.12;93554.06;5005226;28;20040;-78
2023/08/31 05:24:47;;;;;;;5.90;2.15;;;;;;;20.56;43.85;93550.22;5008003;28;20121;-77
2023/08/31 05:27:13;;;;;;;6.95;1.40;;;;;;;20.63;43.95;93538.63;5008283;28;20038;-78
2023/08/31 05:29:38;;;;;;;6.85;1.50;;;;;;;20.71;42.62;93547.53;5006875;28;20414;-78
2023/08/31 05:32:04;;;;;;;3.88;1.10;;;;;;;20.59;42.82;93537.84;5008482;28;20030;-78
2023/08/31 05:34:32;;;;;;;5.03;1.38;;;;;;;20.69;42.81;93539.03;5007049;28;20119;-77
2023/08/31 05:36:57;;;;;;;3.38;1.50;;;;;;;20.75;43.05;93532.09;5006817;28;20079;-78
2023/08/31 05:39:23;;;;;;;4.43;1.20;;;;;;;20.73;42.66;93540.56;5007555;28;20861;-78
2023/08/31 05:41:48;;;;;;;3.03;1.13;;;;;;;20.77;42.80;93537.91;5007114;28;20034;-77
2023/08/31 05:44:14;;;;;;;2.60;1.35;;;;;;;20.79;43.21;93522.84;5008137;28;20060;-78
2023/08/31 05:46:40;;;;;;;6.22;1.60;;;;;;;20.88;42.25;93528.66;5006382;28;20045;-78
2023/08/31 05:49:06;;;;;;;3.67;1.50;;;;;;;20.91;42.66;93521.72;5009161;28;20021;-79
2023/08/31 05:51:32;;;;;;;4.68;1.23;;;;;;;21.09;42.64;93546.06;5021928;28;20490;-78
2023/08/31 05:53:57;;;;;;;9.27;1.60;;;;;;;21.05;43.23;93535.25;5008292;28;20045;-77
2023/08/31 05:56:22;;;;;;;1.55;1.10;;;;;;;21.17;42.25;93534.84;5006974;28;20514;-77
2023/08/31 05:58:50;;;;;;;3.10;1.55;;;;;;;21.28;41.74;93551.88;5008651;28;20034;-78
2023/08/31 06:01:15;;;;;;;4.85;1.50;;;;;;;21.35;41.69;93535.66;5007213;28;20025;-78
2023/08/31 06:03:41;;;;;;;5.25;1.60;;;;;;;21.37;41.86;93544.13;5008523;28;20053;-77
2023/08/31 06:06:07;;;;;;;5.50;1.65;;;;;;;21.45;42.66;93545.69;5006237;28;20048;-76
2023/08/31 06:08:33;;;;;;;6.93;2.03;;;;;;;21.49;43.01;93553.78;5009068;28;20038;-78
2023/08/31 06:10:58;;;;;;;7.82;1.95;;;;;;;21.31;43.44;93534.88;5008096;28;20386;-77
2023/08/31 06:13:24;;;;;;;5.10;1.80;;;;;;;21.53;42.99;93556.50;5007255;28;20052;-78
2023/08/31 06:15:49;;;;;;;5.13;1.58;;;;;;;21.64;42.00;93554.56;5010036;28;20022;-76
2023/08/31 06:18:14;;;;;;;6.30;1.60;;;;;;;21.69;41.41;93560.38;5004974;28;21473;-77
2023/08/31 06:20:40;;;;;;;5.45;1.60;;;;;;;21.74;42.65;93556.50;5007455;28;20120;-75
2023/08/31 06:23:05;;;;;;;6.88;2.00;;;;;;;21.78;42.78;93560.75;5011166;28;20557;-78
2023/08/31 06:25:31;;;;;;;8.95;2.17;;;;;;;21.79;42.72;93561.50;5013142;28;20046;-76
2023/08/31 06:27:57;;;;;;;3.72;1.58;;;;;;;21.97;42.80;93570.38;5014813;28;20053;-75
2023/08/31 06:30:23;;;;;;;3.63;2.15;;;;;;;21.97;41.71;93567.66;5010206;28;20046;-78
2023/08/31 06:32:50;;;;;;;5.38;1.65;;;;;;;22.13;42.11;93580.78;5009526;28;20029;-78
2023/08/31 06:35:15;;;;;;;8.57;2.13;;;;;;;22.12;41.58;93580.00;5008155;28;20413;-78
2023/08/31 06:37:41;;;;;;;6.00;2.00;;;;;;;22.25;42.21;93581.13;5011326;28;20087;-78
2023/08/31 06:40:08;;;;;;;6.93;2.20;;;;;;;22.32;42.06;93579.56;5011562;28;20447;-78
2023/08/31 06:42:35;;;;;;;4.50;1.80;;;;;;;22.26;42.01;93571.84;5009527;28;20084;-78
2023/08/31 06:45:01;;;;;;;8.30;1.90;;;;;;;22.42;41.90;93584.19;5011839;28;20437;-78
2023/08/31 06:47:26;;;;;;;9.38;2.25;;;;;;;22.24;41.70;93582.28;5009553;28;20053;-79
2023/08/31 06:49:52;;;;;;;5.32;2.50;;;;;;;21.98;42.91;93582.75;5011978;28;20453;-78
2023/08/31 06:52:18;;;;;;;7.40;2.35;;;;;;;22.26;42.11;93588.09;5011999;28;20059;-78
2023/08/31 06:54:43;;;;;;;3.78;2.10;;;;;;;22.26;42.22;93592.75;5009839;28;20013;-78
2023/08/31 06:57:09;;;;;;;9.63;2.63;;;;;;;22.41;42.00;93588.81;5011701;28;20512;-78
2023/08/31 06:59:34;;;;;;;5.15;1.95;;;;;;;22.59;41.28;93584.09;5012159;28;20052;-77
2023/08/31 07:01:59;;;;;;;7.57;2.17;;;;;;;22.54;41.48;93592.63;5009364;28;20076;-78
2023/08/31 07:04:27;;;;;;;8.57;2.72;;;;;;;22.49;40.70;93601.16;5011637;28;20037;-78
2023/08/31 07:06:52;;;;;;;7.35;2.22;;;;;;;22.59;41.13;93586.03;5018089;28;20096;-78
2023/08/31 07:09:18;;;;;;;11.13;2.35;;;;;;;22.60;41.42;93595.72;5009896;28;20030;-78
2023/08/31 07:11:43;;;;;;;8.65;3.10;;;;;;;22.78;41.41;93593.69;5011095;28;20108;-78
2023/08/31 07:14:09;;;;;;;6.97;2.17;;;;;;;22.89;40.94;93591.72;5011472;28;20088;-78
2023/08/31 07:16:34;;;;;;;9.13;2.55;;;;;;;22.79;40.60;93592.50;5010878;28;20520;-78
2023/08/31 07:18:59;;;;;;;6.20;2.30;;;;;;;22.45;40.84;93592.28;5017502;28;20036;-78
2023/08/31 07:21:25;;;;;;;7.82;2.22;;;;;;;22.73;40.32;93592.16;5008268;28;20084;-79
2023/08/31 07:23:50;;;;;;;7.10;2.00;;;;;;;22.82;39.89;93591.75;5010072;28;20052;-77
2023/08/31 07:26:16;;;;;;;7.43;1.60;;;;;;;22.82;37.43;93570.06;5009051;28;20527;-78
2023/08/31 07:28:41;;;;;;;2.70;1.17;;;;;;;22.85;36.85;93592.88;5010625;28;20052;-77
2023/08/31 07:31:07;;;;;;;6.88;1.20;;;;;;;22.81;37.28;93581.28;5009332;28;20505;-78
2023/08/31 07:33:34;;;;;;;2.83;0.75;;;;;;;22.94;37.25;93587.81;5009238;28;20026;-78
2023/08/31 07:36:01;;;;;;;2.50;1.00;;;;;;;22.86;37.14;93586.28;5009855;28;20144;-78
2023/08/31 07:38:27;;;;;;;2.63;1.05;;;;;;;22.76;37.11;93581.69;5010504;28;20161;-78
2023/08/31 07:40:53;;;;;;;3.58;1.02;;;;;;;22.66;37.41;93569.75;5010318;28;20417;-78
2023/08/31 07:43:18;;;;;;;5.25;1.15;;;;;;;22.73;36.83;93600.28;5009760;28;20041;-79
2023/08/31 07:45:44;;;;;;;4.85;1.13;;;;;;;22.63;37.36;93611.19;5010977;28;20033;-78
2023/08/31 07:48:09;;;;;;;2.67;1.17;;;;;;;22.60;37.47;93606.56;5008905;28;20083;-77
2023/08/31 07:50:35;;;;;;;3.50;1.20;;;;;;;22.52;37.54;93599.63;5017170;28;20037;-77
2023/08/31 07:53:00;;;;;;;7.78;1.75;;;;;;;22.41;37.64;93598.88;5009359;28;20569;-78
2023/08/31 07:55:26;;;;;;;3.67;1.20;;;;;;;22.42;38.13;93605.84;5010899;28;20564;-79
2023/08/31 07:57:51;;;;;;;6.68;1.52;;;;;;;22.37;38.18;93615.16;5011350;28;20026;-78
2023/08/31 08:00:18;;;;;;;3.47;1.08;;;;;;;22.34;38.05;93609.78;5009544;28;20510;-78
2023/08/31 08:02:46;;;;;;;8.43;1.95;;;;;;;22.12;37.66;93609.78;5007951;28;20045;-77
2023/08/31 08:05:11;;;;;;;7.07;2.97;;;;;;;22.20;37.86;93621.38;5011414;28;20516;-78
2023/08/31 08:07:37;;;;;;;4.90;1.83;;;;;;;22.01;37.82;93586.59;5007417;28;20041;-78
2023/08/31 08:10:06;;;;;;;4.45;1.77;;;;;;;22.17;37.54;93622.94;5009874;28;20029;-79
2023/08/31 08:12:45;;;;;;;6.25;2.05;;;;;;;22.20;37.72;93615.94;5015968;28;20064;-77
2023/08/31 08:15:10;;;;;;;3.88;2.17;;;;;;;22.23;37.53;93613.28;5009122;28;20065;-78
2023/08/31 08:17:36;;;;;;;9.15;4.07;;;;;;;22.46;35.94;93622.88;5009007;28;20537;-78
2023/08/31 08:20:01;;;;;;;7.95;5.03;;;;;;;22.54;34.53;93621.66;5008650;28;20037;-78
2023/08/31 08:22:27;;;;;;;6.63;4.05;;;;;;;22.60;33.52;93622.81;5008862;28;20611;-76
2023/08/31 08:24:53;;;;;;;6.57;4.55;;;;;;;22.43;32.78;93607.41;5017341;28;20022;-78
2023/08/31 08:27:18;;;;;;;7.60;4.25;;;;;;;22.49;32.57;93617.44;5008389;28;20042;-78
2023/08/31 08:29:45;;;;;;;6.78;4.30;;;;;;;22.55;34.04;93631.34;5012010;28;20046;-78
2023/08/31 08:32:10;;;;;;;8.55;4.68;;;;;;;22.50;33.62;93623.63;5007415;28;20068;-78
2023/08/31 08:34:35;;;;;;;6.18;4.25;;;;;;;22.48;35.26;93615.13;5007825;28;20129;-77
2023/08/31 08:37:02;;;;;;;4.80;3.58;;;;;;;22.60;33.82;93606.56;5016234;28;20452;-78
2023/08/31 08:39:27;;;;;;;7.57;3.85;;;;;;;22.71;34.48;93615.41;5008186;28;20044;-77
2023/08/31 08:41:54;;;;;;;8.90;3.88;;;;;;;22.74;34.50;93623.53;5023944;28;20069;-78
2023/08/31 08:44:23;;;;;;;4.68;3.47;;;;;;;22.66;34.54;93616.59;5007204;28;20033;-78
2023/08/31 08:46:50;;;;;;;5.60;3.60;;;;;;;22.74;34.43;93622.75;5008277;28;20045;-78
2023/08/31 08:49:15;;;;;;;5.47;3.38;;;;;;;22.68;33.94;93624.34;5008223;28;20025;-77
2023/08/31 08:51:41;;;;;;;5.90;3.88;;;;;;;22.38;34.37;93594.25;5016369;28;20071;-78
2023/08/31 08:54:08;;;;;;;7.22;3.22;;;;;;;22.39;33.43;93628.31;5008096;28;20030;-75
2023/08/31 08:56:34;;;;;;;7.13;3.80;;;;;;;22.42;34.21;93600.44;5009188;28;20401;-78
2023/08/31 08:59:00;;;;;;;6.05;3.03;;;;;;;22.64;33.57;93612.72;5007984;28;20120;-78
2023/08/31 09:01:26;;;;;;;8.88;3.65;;;;;;;22.63;32.91;93606.53;5006078;28;20040;-77
2023/08/31 09:03:52;;;;;;;5.78;4.28;;;;;;;22.71;33.14;93618.91;5008352;28;20520;-78
2023/08/31 09:06:17;;;;;;;5.75;2.92;;;;;;;22.63;33.04;93600.38;5009098;28;20060;-78
2023/08/31 09:08:42;;;;;;;4.07;3.03;;;;;;;22.78;32.73;93618.06;5011196;28;20049;-78
2023/08/31 09:11:08;;;;;;;6.70;4.15;;;;;;;22.76;33.40;93615.00;5009502;28;20820;-78
2023/08/31 09:13:34;;;;;;;9.40;3.67;;;;;;;22.77;32.62;93611.13;5009267;28;20389;-78
2023/08/31 09:15:59;;;;;;;5.60;3.30;;;;;;;22.69;32.85;93602.25;5016189;28;20026;-78
2023/08/31 09:18:31;;;;;;;3.88;2.72;;;;;;;22.71;33.61;93607.28;5008009;28;20041;-76
2023/08/31 09:20:57;;;;;;;5.45;3.70;;;;;;;22.81;34.33;93625.44;5016553;28;20090;-76
2023/08/31 09:23:23;;;;;;;5.13;3.08;;;;;;;22.90;33.65;93614.97;5006360;28;20041;-77
2023/08/31 09:25:52;;;;;;;7.43;3.60;;;;;;;22.79;33.90;93603.38;5015251;28;20379;-76
2023/08/31 09:28:20;;;;;;;5.35;3.08;;;;;;;22.85;33.96;93623.47;5007832;28;20048;-76
2023/08/31 09:30:48;;;;;;;6.57;3.47;;;;;;;22.87;33.88;93623.13;5008224;28;20057;-77
2023/08/31 09:33:20;;;;;;;5.90;3.05;;;;;;;22.89;33.68;93628.91;5008520;28;20060;-76
2023/08/31 09:36:07;;;;;;;6.32;2.90;;;;;;;22.93;34.18;93619.59;5006704;28;20053;-76
2023/08/31 09:38:41;;;;;;;4.78;2.80;;;;;;;23.06;32.18;93615.25;5023667;28;20042;-75
2023/08/31 09:41:07;;;;;;;4.85;3.58;;;;;;;22.98;32.38;93607.53;5014304;28;20045;-76
2023/08/31 09:43:32;;;;;;;6.60;3.35;;;;;;;23.11;31.72;93611.34;5008432;28;20524;-76
2023/08/31 09:45:59;;;;;;;5.00;3.20;;;;;;;23.10;31.62;93602.44;5007785;28;20056;-76
2023/08/31 09:48:26;;;;;;;6.40;3.85;;;;;;;23.14;32.03;93597.00;5006600;28;20229;-77
2023/08/31 09:50:52;;;;;;;6.50;4.18;;;;;;;23.11;32.44;93620.28;5007941;28;20603;-76
2023/08/31 09:53:20;;;;;;;6.72;3.30;;;;;;;23.21;32.64;93607.03;5007894;28;20091;-77
2023/08/31 09:55:46;;;;;;;5.68;3.80;;;;;;;23.31;34.34;93600.75;5005596;28;20064;-77
2023/08/31 09:58:14;;;;;;;4.93;3.58;;;;;;;23.45;32.23;93597.94;5007344;28;20330;-76
2023/08/31 10:00:40;;;;;;;5.47;3.40;;;;;;;23.37;32.64;93599.16;5008146;28;20022;-77
2023/08/31 10:03:06;;;;;;;8.20;3.85;;;;;;;23.28;32.95;93601.53;5006761;28;20092;-76
2023/08/31 10:05:32;;;;;;;6.85;4.00;;;;;;;23.32;32.95;93588.75;5004539;28;20049;-76
2023/08/31 10:07:58;;;;;;;6.63;3.67;;;;;;;23.34;33.07;93589.88;5005941;28;20045;-77
2023/08/31 10:10:24;;;;;;;5.72;3.33;;;;;;;23.34;31.79;93589.88;5006197;28;20022;-77
2023/08/31 10:12:51;;;;;;;4.75;3.13;;;;;;;23.39;31.83;93580.53;5022019;28;20101;-76
2023/08/31 10:15:18;;;;;;;4.95;3.33;;;;;;;23.38;32.11;93598.75;5006411;28;20042;-75
2023/08/31 10:17:44;;;;;;;6.03;3.63;;;;;;;23.19;31.57;93593.09;5008373;28;20037;-77
2023/08/31 10:20:11;;;;;;;6.68;3.75;;;;;;;23.31;31.98;93601.53;5014183;28;20077;-75
2023/08/31 10:22:37;;;;;;;5.07;3.28;;;;;;;23.32;33.14;93591.47;5006601;28;20034;-76
2023/08/31 10:25:09;;;;;;;5.60;3.67;;;;;;;23.50;31.78;93602.97;5022965;28;20040;-77
2023/08/31 10:27:45;;;;;;;5.82;3.92;;;;;;;23.63;30.67;93604.03;5016842;28;20072;-78
2023/08/31 10:30:15;;;;;;;4.60;3.28;;;;;;;23.68;31.29;93602.81;5007603;28;20111;-79
2023/08/31 10:32:40;;;;;;;5.28;3.78;;;;;;;23.56;31.17;93587.81;5006733;28;20607;-78
2023/08/31 10:35:08;;;;;;;5.35;3.75;;;;;;;23.71;31.80;93602.78;5007778;28;20068;-78
2023/08/31 10:37:34;;;;;;;5.47;3.47;;;;;;;23.79;30.97;93615.13;5012966;28;20570;-79
2023/08/31 10:40:12;;;;;;;4.53;3.40;;;;;;;23.80;31.29;93616.69;5008423;28;20021;-78
2023/08/31 10:42:44;;;;;;;9.25;3.70;;;;;;;23.83;30.83;93615.88;5012473;28;20121;-78
2023/08/31 10:45:10;;;;;;;7.13;4.05;;;;;;;23.61;31.07;93590.09;5006190;28;20037;-78
2023/08/31 10:47:40;;;;;;;4.82;3.10;;;;;;;23.85;30.80;93618.19;5006516;28;20559;-78
2023/08/31 10:50:20;;;;;;;8.02;3.15;;;;;;;23.95;31.00;93609.19;5008758;28;20041;-78
2023/08/31 10:52:46;;;;;;;5.82;3.20;;;;;;;24.09;29.87;93622.63;5008945;28;20037;-78
2023/08/31 10:55:11;;;;;;;4.57;3.13;;;;;;;24.08;30.35;93614.88;5006447;28;20028;-78
2023/08/31 10:57:37;;;;;;;4.75;3.05;;;;;;;24.13;29.90;93611.75;5007757;28;20749;-78
2023/08/31 11:00:04;;;;;;;5.90;2.90;;;;;;;24.19;29.71;93621.00;5009280;28;20042;-79
2023/08/31 11:02:43;;;;;;;6.80;3.40;;;;;;;24.17;30.09;93631.50;5005917;28;20053;-78
2023/08/31 11:05:16;;;;;;;4.40;2.72;;;;;;;23.98;29.82;93624.66;5013617;28;20043;-78
2023/08/31 11:07:50;;;;;;;4.20;2.47;;;;;;;23.92;30.01;93620.84;5015096;28;20041;-79
2023/08/31 11:10:20;;;;;;;6.80;3.25;;;;;;;24.11;31.12;93625.72;5011657;28;20029;-77
2023/08/31 11:12:48;;;;;;;7.10;4.00;;;;;;;24.03;32.48;93624.22;5017278;28;20118;-78
2023/08/31 11:15:17;;;;;;;6.90;3.42;;;;;;;24.02;32.35;93626.16;5007610;28;20041;-78
2023/08/31 11:17:42;;;;;;;6.68;3.72;;;;;;;23.94;32.33;93627.41;5011080;28;20040;-77
2023/08/31 11:20:13;;;;;;;5.20;2.85;;;;;;;23.98;32.01;93638.25;5010347;28;20050;-78
2023/08/31 11:22:41;;;;;;;3.97;2.65;;;;;;;24.06;32.19;93634.28;5017368;28;20033;-78
2023/08/31 11:25:08;;;;;;;4.43;3.15;;;;;;;24.05;32.24;93626.56;5008352;28;20029;-77
2023/08/31 11:27:34;;;;;;;6.68;2.95;;;;;;;24.10;31.98;93626.88;5024025;28;20030;-78
2023/08/31 11:30:00;;;;;;;6.00;3.13;;;;;;;24.15;32.70;93610.16;5009974;28;20057;-78
2023/08/31 11:32:25;;;;;;;6.65;2.83;;;;;;;24.21;31.86;93613.19;5011208;28;20037;-77